Time;durP1;ratioP1;P1;durP2;ratioP2;P2;SDS_P1;SDS_P2;PMS_P1;PMS_P2;Temp;Humidity;BMP_temperature;BMP_pressure;BME280_temperature;BME280_humidity;BME280_pressure;Samples;Min_cycle;Max_cycle;Signal;HPM_P1;HPM_P2
2024/03/18 00:01:33;;;;;;;3.80;2.70;;;;;;;2.05;56.93;100971.41;110693;1255;23049;-70
2024/03/18 00:04:02;;;;;;;5.30;2.90;;;;;;;2.02;56.69;100965.58;111187;1242;23019;-70
2024/03/18 00:06:30;;;;;;;4.60;2.50;;;;;;;2.00;57.01;100963.20;111239;1255;24439;-71
2024/03/18 00:08:59;;;;;;;6.00;2.60;;;;;;;1.96;56.86;100962.06;111207;1255;23015;-71
2024/03/18 00:11:28;;;;;;;4.80;2.80;;;;;;;1.95;56.94;100961.58;111188;1255;22460;-72
2024/03/18 00:13:57;;;;;;;3.60;2.50;;;;;;;1.96;57.00;100958.76;111211;1255;21967;-73
2024/03/18 00:16:25;;;;;;;5.20;2.40;;;;;;;1.99;57.34;100962.00;111218;1255;21963;-72
2024/03/18 00:18:54;;;;;;;5.30;2.30;;;;;;;2.00;57.36;100963.02;111215;1255;24140;-71
2024/03/18 00:21:23;;;;;;;6.00;2.40;;;;;;;2.02;57.47;100963.15;111231;1255;21962;-72
2024/03/18 00:23:52;;;;;;;3.70;2.70;;;;;;;2.02;57.61;100959.85;111053;1255;21961;-73
2024/03/18 00:26:21;;;;;;;6.50;3.50;;;;;;;2.02;57.64;100958.97;111200;1255;23673;-71
2024/03/18 00:28:50;;;;;;;6.20;3.90;;;;;;;2.00;57.65;100952.23;111216;1255;22134;-72
2024/03/18 00:31:19;;;;;;;5.10;3.00;;;;;;;1.98;57.60;100951.10;111343;1255;23570;-72
2024/03/18 00:33:50;;;;;;;5.90;3.20;;;;;;;1.96;57.53;100947.66;111198;1255;23572;-71
2024/03/18 00:36:19;;;;;;;4.20;2.50;;;;;;;1.93;57.62;100945.30;111243;1255;21984;-72
2024/03/18 00:38:48;;;;;;;5.30;2.20;;;;;;;1.92;57.79;100944.83;111181;1254;22225;-71
2024/03/18 00:44:07;;;;;;;4.10;2.40;;;;;;;1.87;57.90;100936.44;111203;1255;22759;-71
2024/03/18 00:46:36;;;;;;;;;;;;;;;1.86;58.05;100941.30;111189;1255;23567;-71
2024/03/18 00:49:05;;;;;;;6.40;2.50;;;;;;;1.73;58.24;100942.31;111171;1255;21997;-71
2024/03/18 00:51:33;;;;;;;4.40;2.50;;;;;;;1.76;58.30;100937.39;111177;1255;21958;-71
2024/03/18 00:54:04;;;;;;;6.10;2.50;;;;;;;1.80;58.08;100940.78;111236;1255;22991;-71
2024/03/18 00:56:33;;;;;;;5.40;2.40;;;;;;;1.80;57.89;100937.45;111226;1255;21954;-71
2024/03/18 00:59:04;;;;;;;5.60;2.90;;;;;;;1.78;57.73;100938.39;111233;1255;22154;-71
2024/03/18 01:01:34;;;;;;;5.50;2.80;;;;;;;1.77;57.68;100934.94;111217;1255;22801;-71
2024/03/18 01:04:04;;;;;;;5.50;2.50;;;;;;;1.76;57.72;100936.52;111266;1255;21951;-72
2024/03/18 01:06:33;;;;;;;5.20;2.60;;;;;;;1.75;57.60;100934.80;111447;1254;21962;-73
2024/03/18 01:09:03;;;;;;;4.60;2.80;;;;;;;1.73;57.94;100931.39;110666;1256;22203;-71
2024/03/18 01:11:32;;;;;;;4.40;2.70;;;;;;;1.74;57.81;100930.14;111119;1256;21969;-72
2024/03/18 01:14:01;;;;;;;8.40;3.10;;;;;;;1.75;58.04;100929.95;111045;1256;22946;-71
2024/03/18 01:16:30;;;;;;;5.10;2.70;;;;;;;1.76;58.18;100929.23;111078;1254;21971;-72
2024/03/18 01:19:00;;;;;;;9.60;3.40;;;;;;;1.77;58.11;100930.77;111183;1255;21955;-72
2024/03/18 01:21:29;;;;;;;5.40;2.80;;;;;;;1.78;58.07;100929.70;111262;1255;21975;-70
2024/03/18 01:23:58;;;;;;;5.20;3.00;;;;;;;1.80;58.35;100927.93;111191;1255;22041;-71
2024/03/18 01:26:27;;;;;;;6.20;3.40;;;;;;;1.79;58.25;100928.30;111194;1255;21989;-71
2024/03/18 01:28:56;;;;;;;6.90;3.60;;;;;;;1.77;58.01;100922.61;111215;1255;21953;-70
2024/03/18 01:31:25;;;;;;;9.70;4.40;;;;;;;1.76;58.02;100923.86;111228;1255;21955;-72
2024/03/18 01:33:54;;;;;;;9.50;4.90;;;;;;;1.74;58.10;100921.48;111071;1255;21955;-71
2024/03/18 01:36:22;;;;;;;7.30;4.70;;;;;;;1.72;58.02;100918.04;111196;1255;23669;-70
2024/03/18 01:38:51;;;;;;;8.70;4.50;;;;;;;1.69;57.85;100912.91;111247;1255;21942;-71
2024/03/18 01:41:21;;;;;;;6.20;4.20;;;;;;;1.67;58.13;100910.35;110917;1255;23718;-70
2024/03/18 01:43:50;;;;;;;9.20;4.40;;;;;;;1.66;58.06;100908.13;111198;1255;22811;-70
2024/03/18 01:46:19;;;;;;;8.90;4.80;;;;;;;1.68;58.28;100909.45;111161;1255;22000;-70
2024/03/18 01:48:48;;;;;;;6.10;4.50;;;;;;;1.71;58.51;100909.58;111212;1251;22022;-70
2024/03/18 01:51:16;;;;;;;5.20;3.20;;;;;;;1.72;58.68;100910.06;111188;1255;21946;-71
2024/03/18 01:53:45;;;;;;;8.00;3.70;;;;;;;1.73;58.64;100912.30;111155;1255;23782;-72
2024/03/18 01:56:15;;;;;;;6.50;3.70;;;;;;;1.75;58.32;100907.40;111235;1255;21964;-71
2024/03/18 01:58:45;;;;;;;6.60;3.40;;;;;;;1.75;58.49;100905.30;111215;1255;22235;-70
2024/03/18 02:01:14;;;;;;;6.50;3.70;;;;;;;1.76;58.25;100905.11;111195;1255;22920;-70
2024/03/18 02:03:42;;;;;;;6.80;3.80;;;;;;;1.75;58.23;100904.60;111223;1255;23676;-70
2024/03/18 02:06:12;;;;;;;10.50;4.70;;;;;;;1.75;58.15;100905.31;111169;1255;25024;-71
2024/03/18 02:08:41;;;;;;;7.60;4.10;;;;;;;1.72;58.06;100902.59;111180;1252;23094;-70
2024/03/18 02:11:09;;;;;;;8.70;4.80;;;;;;;1.72;58.11;100901.03;111136;1255;21992;-70
2024/03/18 02:13:39;;;;;;;8.10;4.30;;;;;;;1.74;58.17;100903.06;111212;1255;21943;-70
2024/03/18 02:16:08;;;;;;;5.00;3.10;;;;;;;1.75;58.21;100900.27;111263;1253;23029;-71
2024/03/18 02:18:37;;;;;;;6.10;3.00;;;;;;;1.75;58.30;100895.41;111175;1242;23576;-70
2024/03/18 02:21:06;;;;;;;7.10;3.00;;;;;;;1.75;58.31;100895.91;111202;1254;21966;-71
2024/03/18 02:23:34;;;;;;;5.50;2.80;;;;;;;1.75;58.39;100892.80;111237;1255;21971;-71
2024/03/18 02:26:03;;;;;;;7.50;3.70;;;;;;;1.74;58.26;100892.47;111067;1255;21958;-71
2024/03/18 02:28:40;;;;;;;7.30;4.00;;;;;;;1.75;58.10;100891.08;111222;1255;23666;-70
2024/03/18 02:31:09;;;;;;;4.90;3.10;;;;;;;1.75;58.17;100888.30;111192;1255;23725;-71
2024/03/18 02:33:38;;;;;;;7.40;3.90;;;;;;;1.74;58.17;100891.10;111186;1242;23028;-71
2024/03/18 02:36:08;;;;;;;5.20;3.20;;;;;;;1.71;58.17;100889.59;111219;1254;22131;-71
2024/03/18 02:38:37;;;;;;;7.70;3.20;;;;;;;1.72;58.28;100891.14;111215;1255;23006;-70
2024/03/18 02:41:06;;;;;;;8.60;5.40;;;;;;;1.74;58.15;100890.05;111231;1255;21967;-70
2024/03/18 02:43:34;;;;;;;9.10;5.10;;;;;;;1.76;58.23;100886.71;111211;1255;21964;-71
2024/03/18 02:46:04;;;;;;;6.00;3.70;;;;;;;1.77;58.49;100886.67;111287;1255;21953;-72
2024/03/18 02:48:33;;;;;;;8.90;4.00;;;;;;;1.79;58.35;100885.94;111148;1255;22759;-71
2024/03/18 02:51:07;;;;;;;5.50;3.40;;;;;;;1.79;58.38;100884.89;111192;1254;21969;-72
2024/03/18 02:53:36;;;;;;;8.60;2.90;;;;;;;1.77;58.03;100885.78;111255;1255;22329;-72
2024/03/18 02:56:05;;;;;;;7.80;3.20;;;;;;;1.76;58.23;100885.14;111284;1255;21961;-71
2024/03/18 02:58:34;;;;;;;4.70;2.60;;;;;;;1.75;58.35;100883.77;111261;1255;22153;-71
2024/03/18 03:01:03;;;;;;;6.90;3.00;;;;;;;1.74;58.28;100880.69;111028;1257;21971;-71
2024/03/18 03:03:32;;;;;;;4.00;3.10;;;;;;;1.71;58.32;100881.26;111005;1257;22330;-71
2024/03/18 03:06:01;;;;;;;7.70;4.30;;;;;;;1.67;58.33;100874.95;111062;1257;21964;-71
2024/03/18 03:08:31;;;;;;;8.00;3.90;;;;;;;1.62;58.24;100875.06;110994;1257;22191;-71
2024/03/18 03:11:04;;;;;;;8.50;4.80;;;;;;;1.60;58.39;100870.62;111260;1251;21957;-71
2024/03/18 03:13:33;;;;;;;5.50;4.10;;;;;;;1.58;58.64;100870.66;111288;1255;22039;-71
2024/03/18 03:16:03;;;;;;;7.90;4.80;;;;;;;1.58;58.55;100875.51;111211;1255;21961;-72
2024/03/18 03:18:31;;;;;;;8.90;4.70;;;;;;;1.59;58.64;100877.41;111268;1255;22183;-72
2024/03/18 03:21:00;;;;;;;11.00;5.10;;;;;;;1.61;58.78;100880.48;111256;1254;21958;-72
2024/03/18 03:23:29;;;;;;;8.10;5.20;;;;;;;1.62;58.53;100879.92;111307;1245;22386;-72
2024/03/18 03:25:58;;;;;;;7.20;3.50;;;;;;;1.63;58.39;100880.79;111192;1255;22724;-72
2024/03/18 03:28:28;;;;;;;4.20;3.10;;;;;;;1.60;58.42;100880.15;111155;1254;21963;-71
2024/03/18 03:31:05;;;;;;;4.80;2.60;;;;;;;1.59;58.44;100881.23;111229;1255;22574;-70
2024/03/18 03:33:35;;;;;;;6.80;3.10;;;;;;;1.58;58.30;100879.52;111146;1255;22749;-72
2024/03/18 03:36:05;;;;;;;5.70;2.90;;;;;;;1.57;58.23;100879.73;111192;1255;22833;-73
2024/03/18 03:38:33;;;;;;;8.00;3.60;;;;;;;1.56;58.53;100880.60;111177;1255;24350;-70
2024/03/18 03:41:03;;;;;;;6.40;2.80;;;;;;;1.57;58.60;100880.41;111081;1253;185997;-71
2024/03/18 03:43:32;;;;;;;5.80;4.00;;;;;;;1.57;58.76;100879.55;111088;1255;23480;-73
2024/03/18 03:46:02;;;;;;;5.60;3.50;;;;;;;1.59;58.81;100882.27;110893;1255;23035;-71
2024/03/18 03:48:31;;;;;;;5.80;3.40;;;;;;;1.59;58.86;100883.65;111237;1255;23144;-71
2024/03/18 03:51:00;;;;;;;7.90;3.50;;;;;;;1.60;58.93;100880.84;111260;1255;21977;-70
2024/03/18 03:53:28;;;;;;;7.10;3.30;;;;;;;1.62;58.72;100881.52;111232;1255;21970;-72
2024/03/18 03:55:57;;;;;;;6.30;3.60;;;;;;;1.61;58.67;100880.48;111156;1255;21974;-73
2024/03/18 03:58:27;;;;;;;7.00;3.70;;;;;;;1.60;58.68;100878.95;111277;1255;21988;-70
2024/03/18 04:00:55;;;;;;;7.10;4.10;;;;;;;1.59;58.59;100878.78;111253;1255;21943;-72
2024/03/18 04:03:25;;;;;;;6.30;4.00;;;;;;;1.57;58.76;100879.73;111256;1255;22947;-72
2024/03/18 04:05:54;;;;;;;6.00;3.60;;;;;;;1.53;58.71;100879.10;111302;1255;23578;-72
2024/03/18 04:08:24;;;;;;;5.40;3.50;;;;;;;1.51;58.93;100877.95;111023;1255;21964;-71
2024/03/18 04:10:53;;;;;;;5.00;3.80;;;;;;;1.50;59.07;100876.75;111270;1254;21958;-71
2024/03/18 04:13:21;;;;;;;7.30;4.40;;;;;;;1.48;59.12;100878.35;111188;1255;22228;-72
2024/03/18 04:15:51;;;;;;;9.30;4.50;;;;;;;1.47;59.20;100877.69;111207;1254;23681;-71
2024/03/18 04:18:20;;;;;;;7.60;4.90;;;;;;;1.47;59.17;100882.36;111086;1256;21980;-71
2024/03/18 04:20:49;;;;;;;7.80;4.00;;;;;;;1.49;59.46;100883.73;111124;1254;21967;-72
2024/03/18 04:23:19;;;;;;;7.00;4.10;;;;;;;1.49;59.43;100884.91;111190;1255;23054;-72
2024/03/18 04:25:48;;;;;;;8.30;4.60;;;;;;;1.50;59.34;100882.98;111243;1255;23666;-75
2024/03/18 04:28:18;;;;;;;7.20;4.10;;;;;;;1.48;59.15;100881.31;111248;1255;21961;-72
2024/03/18 04:30:46;;;;;;;9.10;5.10;;;;;;;1.45;59.20;100873.73;111261;1255;22040;-72
2024/03/18 04:33:15;;;;;;;9.40;5.20;;;;;;;1.42;59.31;100875.72;111252;1255;23672;-72
2024/03/18 04:35:45;;;;;;;8.00;4.60;;;;;;;1.41;59.53;100876.27;111201;1255;21966;-73
2024/03/18 04:38:14;;;;;;;7.50;4.70;;;;;;;1.39;59.50;100877.36;111227;1241;23093;-73
2024/03/18 04:40:43;;;;;;;5.70;4.00;;;;;;;1.38;59.52;100881.20;111149;1255;21957;-73
2024/03/18 04:43:12;;;;;;;9.30;4.40;;;;;;;1.38;59.72;100881.38;111202;1255;23379;-73
2024/03/18 04:45:41;;;;;;;15.30;4.80;;;;;;;1.38;60.00;100879.48;111175;1252;23029;-71
2024/03/18 04:48:11;;;;;;;6.40;3.80;;;;;;;1.36;60.03;100882.80;111245;1254;21954;-70
2024/03/18 04:50:40;;;;;;;8.70;4.00;;;;;;;1.34;60.30;100885.29;111228;1248;21956;-70
2024/03/18 04:53:08;;;;;;;4.50;3.40;;;;;;;1.35;60.39;100884.75;111222;1255;23100;-70
2024/03/18 04:55:37;;;;;;;9.10;4.00;;;;;;;1.35;60.36;100888.55;111352;1255;22238;-72
2024/03/18 04:58:06;;;;;;;6.60;3.80;;;;;;;1.35;60.27;100890.81;111256;1255;22019;-72
2024/03/18 05:00:35;;;;;;;5.50;3.60;;;;;;;1.34;60.33;100886.66;111240;1255;21988;-72
2024/03/18 05:03:04;;;;;;;6.50;4.50;;;;;;;1.34;60.29;100887.38;111277;1255;21941;-71
2024/03/18 05:05:32;;;;;;;9.40;4.60;;;;;;;1.34;60.26;100886.16;111235;1255;22814;-72
2024/03/18 05:08:01;;;;;;;7.90;4.90;;;;;;;1.31;60.39;100880.50;111316;1255;21959;-71
2024/03/18 05:10:30;;;;;;;8.90;5.00;;;;;;;1.29;60.42;100881.41;111344;1255;22029;-72
2024/03/18 05:13:01;;;;;;;113.60;83.90;;;;;;;1.29;60.36;100881.92;111226;1254;23841;-73
2024/03/18 05:15:30;;;;;;;13.30;7.30;;;;;;;1.30;60.76;100877.05;111227;1248;22328;-71
2024/03/18 05:17:59;;;;;;;10.10;6.90;;;;;;;1.30;60.61;100881.40;111268;1255;23467;-72
2024/03/18 05:20:28;;;;;;;10.00;5.90;;;;;;;1.30;60.67;100881.56;111282;1255;21979;-72
2024/03/18 05:22:56;;;;;;;9.60;5.80;;;;;;;1.31;60.76;100887.45;111258;1255;21985;-70
2024/03/18 05:25:25;;;;;;;7.60;5.10;;;;;;;1.29;60.78;100886.79;111243;1255;21954;-72
2024/03/18 05:27:54;;;;;;;7.00;5.30;;;;;;;1.28;60.74;100886.13;111145;1248;23014;-72
2024/03/18 05:30:23;;;;;;;7.00;4.40;;;;;;;1.26;60.75;100891.20;111237;1255;24365;-72
2024/03/18 05:32:52;;;;;;;11.90;5.40;;;;;;;1.24;60.79;100894.71;111109;1255;22322;-71
2024/03/18 05:35:21;;;;;;;13.50;5.80;;;;;;;1.23;61.06;100893.88;110859;1254;23686;-71
2024/03/18 05:37:50;;;;;;;14.80;5.00;;;;;;;1.24;61.04;100891.60;110961;1254;21953;-78
2024/03/18 05:40:19;;;;;;;8.20;4.50;;;;;;;1.28;61.09;100894.96;111005;1251;22847;-71
2024/03/18 05:42:50;;;;;;;8.00;3.60;;;;;;;1.37;60.89;100899.63;111043;1255;21965;-72
2024/03/18 05:45:25;;;;;;;9.00;4.50;;;;;;;1.45;60.82;100900.11;111204;1252;23022;-71
2024/03/18 05:47:54;;;;;;;9.90;3.90;;;;;;;1.50;60.53;100894.45;111052;1255;22324;-69
2024/03/18 05:50:22;;;;;;;7.20;4.10;;;;;;;1.53;60.37;100892.80;111020;1255;21992;-73
2024/03/18 05:52:52;;;;;;;6.60;3.70;;;;;;;1.55;60.31;100898.84;110849;1255;22411;-75
2024/03/18 05:55:20;;;;;;;8.10;5.40;;;;;;;1.56;60.27;100899.86;111266;1255;21972;-75
2024/03/18 05:57:49;;;;;;;7.60;5.80;;;;;;;1.57;60.30;100896.38;111213;1255;23234;-76
2024/03/18 06:00:20;;;;;;;8.00;5.70;;;;;;;1.57;60.11;100896.19;111260;1252;21963;-78
2024/03/18 06:02:49;;;;;;;11.90;5.80;;;;;;;1.58;60.16;100892.69;111203;1255;22860;-75
2024/03/18 06:05:18;;;;;;;11.60;5.60;;;;;;;1.60;60.33;100892.82;111302;1254;21960;-76
2024/03/18 06:07:47;;;;;;;8.90;6.20;;;;;;;1.64;60.74;100893.94;111272;1254;21959;-75
2024/03/18 06:10:16;;;;;;;12.30;4.80;;;;;;;1.68;60.48;100893.14;111262;1255;21965;-78
2024/03/18 06:12:45;;;;;;;18.60;10.20;;;;;;;1.69;60.49;100892.61;111330;1255;22653;-75
2024/03/18 06:15:14;;;;;;;16.50;10.30;;;;;;;1.69;60.58;100888.61;111207;1255;23555;-78
2024/03/18 06:17:43;;;;;;;16.40;6.20;;;;;;;1.70;60.73;100892.40;111241;1254;23556;-76
2024/03/18 06:20:12;;;;;;;9.00;5.80;;;;;;;1.70;60.64;100893.45;111136;1255;25051;-75
2024/03/18 06:22:41;;;;;;;9.60;4.80;;;;;;;1.70;60.33;100899.00;111358;1255;22745;-77
2024/03/18 06:27:58;;;;;;;10.40;4.80;;;;;;;1.66;60.55;100897.19;111273;1255;22007;-76
2024/03/18 06:30:27;;;;;;;8.10;4.40;;;;;;;1.69;60.46;100897.11;112334;1254;21984;-75
2024/03/18 06:32:57;;;;;;;6.10;4.10;;;;;;;1.70;60.65;100894.67;112657;1254;22057;-75
2024/03/18 06:35:25;;;;;;;7.00;4.60;;;;;;;1.74;60.86;100891.61;112661;1255;21987;-76
2024/03/18 06:37:54;;;;;;;7.00;4.60;;;;;;;1.80;60.85;100887.80;112849;1254;22001;-73
2024/03/18 06:40:24;;;;;;;9.30;5.10;;;;;;;1.88;60.98;100878.91;113003;1255;21983;-74
2024/03/18 06:42:55;;;;;;;10.30;5.20;;;;;;;1.98;60.85;100880.73;112924;1254;21799;-76
2024/03/18 06:45:25;;;;;;;12.30;7.40;;;;;;;2.09;60.66;100881.67;112815;1252;22211;-77
2024/03/18 06:47:54;;;;;;;14.30;8.30;;;;;;;2.19;60.56;100881.58;112757;1255;21952;-76
2024/03/18 06:50:23;;;;;;;13.20;6.80;;;;;;;2.30;60.25;100881.96;112822;1255;22005;-75
2024/03/18 06:52:52;;;;;;;13.90;7.90;;;;;;;2.41;60.05;100884.98;112766;1255;23743;-75
2024/03/18 06:55:21;;;;;;;19.80;10.40;;;;;;;2.49;59.59;100885.80;112569;1255;23675;-77
2024/03/18 06:57:50;;;;;;;19.80;11.00;;;;;;;2.56;59.70;100884.92;111697;1255;23025;-77
2024/03/18 07:00:19;;;;;;;20.40;11.40;;;;;;;2.64;59.47;100889.36;111214;1255;21955;-75
2024/03/18 07:02:51;;;;;;;11.80;6.50;;;;;;;2.73;58.88;100890.84;111285;1255;21955;-76
2024/03/18 07:05:21;;;;;;;13.00;5.90;;;;;;;2.78;58.92;100888.42;111219;1255;23158;-76
2024/03/18 07:07:51;;;;;;;8.70;4.40;;;;;;;2.83;58.58;100887.61;111314;1255;23044;-77
2024/03/18 07:10:20;;;;;;;11.40;4.50;;;;;;;2.87;58.55;100890.27;111283;1255;22946;-78
2024/03/18 07:12:54;;;;;;;7.30;4.20;;;;;;;2.91;58.36;100884.04;111269;1254;23090;-76
2024/03/18 07:15:24;;;;;;;8.40;4.70;;;;;;;2.95;58.24;100887.92;111263;1255;21960;-77
2024/03/18 07:17:53;;;;;;;8.70;4.60;;;;;;;2.95;57.99;100888.11;111262;1255;22953;-77
2024/03/18 07:20:21;;;;;;;11.80;5.50;;;;;;;2.97;58.13;100888.91;111185;1255;21998;-78
2024/03/18 07:23:03;;;;;;;7.90;4.40;;;;;;;3.03;58.16;100887.36;111232;1255;21966;-77
2024/03/18 07:25:33;;;;;;;9.40;4.60;;;;;;;3.09;58.11;100888.23;111117;1255;22846;-76
2024/03/18 07:28:02;;;;;;;8.40;4.20;;;;;;;3.17;57.99;100886.92;111135;1255;23137;-76
2024/03/18 07:30:31;;;;;;;8.90;4.10;;;;;;;3.23;57.41;100889.17;111257;1252;21946;-77
2024/03/18 07:33:01;;;;;;;11.50;4.80;;;;;;;3.28;57.12;100888.15;111276;1255;23764;-76
2024/03/18 07:35:30;;;;;;;10.40;4.50;;;;;;;3.32;57.12;100889.23;111192;1255;22041;-79
2024/03/18 07:37:59;;;;;;;12.40;6.00;;;;;;;3.34;56.72;100891.27;111114;1254;22904;-80
2024/03/18 07:40:37;;;;;;;13.10;5.70;;;;;;;3.32;56.62;100889.94;111169;1255;23753;-77
2024/03/18 07:43:11;;;;;;;11.00;4.70;;;;;;;3.36;56.64;100889.28;111055;1256;23576;-78
2024/03/18 07:45:40;;;;;;;10.30;5.50;;;;;;;3.43;56.28;100888.69;111198;1255;21998;-77
2024/03/18 07:48:11;;;;;;;17.70;6.20;;;;;;;3.48;56.09;100889.23;111380;1255;21963;-78
2024/03/18 07:50:40;;;;;;;14.50;4.30;;;;;;;3.51;56.01;100889.33;111280;1254;23685;-75
2024/03/18 07:53:11;;;;;;;7.50;4.30;;;;;;;3.52;55.77;100888.77;111242;1254;21963;-77
2024/03/18 07:55:40;;;;;;;10.10;4.90;;;;;;;3.55;55.78;100889.38;111040;1255;23075;-76
2024/03/18 07:58:09;;;;;;;12.60;6.10;;;;;;;3.57;55.56;100888.95;111231;1255;21955;-76
2024/03/18 08:00:38;;;;;;;16.20;5.20;;;;;;;3.65;55.61;100887.30;111244;1254;21970;-77
2024/03/18 08:03:10;;;;;;;11.50;7.50;;;;;;;3.75;55.78;100887.33;111316;1255;22730;-77
2024/03/18 08:05:39;;;;;;;9.90;4.90;;;;;;;3.83;55.55;100885.46;111256;1254;23553;-77
2024/03/18 08:08:13;;;;;;;6.60;3.90;;;;;;;3.94;55.56;100884.94;111155;1255;22170;-76
2024/03/18 08:10:45;;;;;;;11.90;5.70;;;;;;;4.06;55.33;100884.86;111313;1254;21959;-76
2024/03/18 08:13:20;;;;;;;;;;;;;;;4.23;55.29;100887.41;111289;1255;21944;-76
2024/03/18 08:15:49;;;;;;;11.70;4.30;;;;;;;4.31;54.48;100886.27;111248;1254;24380;-77
2024/03/18 08:18:17;;;;;;;8.80;4.20;;;;;;;4.42;54.10;100889.34;111309;1255;23016;-73
2024/03/18 08:20:47;;;;;;;5.00;3.10;;;;;;;4.54;53.81;100887.88;111268;1255;23609;-74
2024/03/18 08:23:18;;;;;;;6.00;4.10;;;;;;;4.57;53.25;100886.56;111105;1255;22890;-76
2024/03/18 08:25:47;;;;;;;11.40;7.20;;;;;;;4.56;53.18;100886.95;111242;1255;22727;-75
2024/03/18 08:28:16;;;;;;;10.90;5.90;;;;;;;4.56;53.12;100885.91;111265;1253;23089;-72
2024/03/18 08:30:44;;;;;;;8.60;4.40;;;;;;;4.54;52.83;100883.17;111232;1254;23675;-74
2024/03/18 08:33:14;;;;;;;14.70;7.20;;;;;;;4.47;52.80;100884.29;110867;1254;23769;-75
2024/03/18 08:35:56;;;;;;;14.10;9.70;;;;;;;4.41;53.08;100883.10;111263;1254;23781;-74
2024/03/18 08:38:25;;;;;;;23.80;9.10;;;;;;;4.38;52.93;100881.13;111150;1255;23599;-74
2024/03/18 08:40:54;;;;;;;6.90;4.90;;;;;;;4.33;52.91;100881.48;111157;1255;23655;-74
2024/03/18 08:43:23;;;;;;;14.60;5.60;;;;;;;4.25;53.09;100879.32;111120;1248;21961;-75
2024/03/18 08:45:54;;;;;;;16.30;5.90;;;;;;;4.22;53.35;100879.27;111133;1255;22056;-74
2024/03/18 08:48:24;;;;;;;10.10;6.20;;;;;;;4.23;53.39;100877.81;111257;1254;21954;-74
2024/03/18 08:50:53;;;;;;;12.70;6.40;;;;;;;4.27;53.62;100880.47;111165;1255;21965;-75
2024/03/18 08:53:22;;;;;;;11.10;7.10;;;;;;;4.34;53.67;100879.01;111269;1254;21963;-74
2024/03/18 08:55:51;;;;;;;10.90;4.20;;;;;;;4.38;53.66;100876.96;111231;1254;22038;-74
2024/03/18 08:58:21;;;;;;;9.20;4.60;;;;;;;4.45;53.61;100878.07;111264;1254;23019;-74
2024/03/18 09:00:50;;;;;;;6.80;4.20;;;;;;;4.49;53.33;100874.45;111262;1254;21960;-74
2024/03/18 09:03:19;;;;;;;7.00;3.70;;;;;;;4.50;52.87;100874.61;111195;1255;21959;-75
2024/03/18 09:05:55;;;;;;;8.70;3.70;;;;;;;4.50;52.82;100874.24;111281;1255;21953;-74
2024/03/18 09:08:24;;;;;;;6.80;4.90;;;;;;;4.51;52.75;100871.06;111286;1255;23679;-74
2024/03/18 09:10:53;;;;;;;7.30;5.20;;;;;;;4.53;52.52;100870.84;111268;1252;23022;-74
2024/03/18 09:13:22;;;;;;;15.90;6.50;;;;;;;4.61;52.83;100872.11;111230;1248;22052;-74
2024/03/18 09:15:52;;;;;;;28.00;19.10;;;;;;;4.69;52.29;100863.61;111238;1254;24405;-73
2024/03/18 09:18:21;;;;;;;9.00;4.50;;;;;;;4.66;52.18;100867.92;111261;1254;22342;-74
2024/03/18 09:20:54;;;;;;;5.70;3.50;;;;;;;4.64;52.27;100869.74;111280;1252;21960;-76
2024/03/18 09:23:24;;;;;;;6.30;3.30;;;;;;;4.68;51.99;100864.17;111241;1254;22922;-74
2024/03/18 09:25:52;;;;;;;14.70;7.50;;;;;;;4.73;52.08;100858.90;111237;1255;23641;-74
2024/03/18 09:28:21;;;;;;;9.30;4.80;;;;;;;4.77;52.03;100859.98;111270;1254;22523;-74
2024/03/18 09:31:03;;;;;;;7.70;5.10;;;;;;;4.80;51.77;100860.74;111261;1251;21959;-74
2024/03/18 09:33:33;;;;;;;5.40;3.70;;;;;;;4.77;51.37;100862.60;111121;1255;22021;-73
2024/03/18 09:36:03;;;;;;;9.00;3.50;;;;;;;4.76;51.47;100858.63;111157;1255;21955;-74
2024/03/18 09:38:32;;;;;;;8.60;4.40;;;;;;;4.76;51.57;100861.61;111231;1255;21967;-74
2024/03/18 09:41:06;;;;;;;10.70;7.40;;;;;;;4.74;51.50;100862.01;111268;1254;24386;-74
2024/03/18 09:43:36;;;;;;;10.00;5.10;;;;;;;4.71;51.63;100860.21;111276;1255;22733;-74
2024/03/18 09:46:05;;;;;;;22.10;5.00;;;;;;;4.77;51.89;100855.09;111232;1250;23742;-75
2024/03/18 09:48:34;;;;;;;12.50;4.20;;;;;;;4.90;51.72;100855.98;111284;1254;23630;-75
2024/03/18 09:51:04;;;;;;;6.20;4.00;;;;;;;5.05;51.43;100855.79;111201;1254;23721;-75
2024/03/18 09:53:34;;;;;;;4.90;3.60;;;;;;;5.17;51.36;100852.87;111232;1255;21983;-74
2024/03/18 09:56:08;;;;;;;8.40;3.50;;;;;;;5.23;50.92;100848.24;111307;1255;23680;-76
2024/03/18 09:58:37;;;;;;;9.10;4.30;;;;;;;5.26;50.45;100846.39;111268;1255;21983;-75
2024/03/18 10:01:11;;;;;;;12.70;5.80;;;;;;;5.29;50.26;100845.05;111270;1255;21964;-73
2024/03/18 10:03:42;;;;;;;9.30;5.20;;;;;;;5.33;50.23;100842.08;111148;1255;23115;-73
2024/03/18 10:06:13;;;;;;;10.30;4.50;;;;;;;5.42;50.21;100839.95;111266;1254;21953;-73
2024/03/18 10:08:42;;;;;;;12.50;5.00;;;;;;;5.49;49.98;100845.08;111236;1254;23771;-74
2024/03/18 10:11:16;;;;;;;11.00;4.70;;;;;;;5.54;49.62;100839.65;111261;1255;23729;-72
2024/03/18 10:13:48;;;;;;;10.20;4.80;;;;;;;5.58;49.83;100841.23;111388;1254;21976;-74
2024/03/18 10:16:19;;;;;;;7.20;3.40;;;;;;;5.65;49.72;100842.67;111299;1254;21958;-73
2024/03/18 10:18:53;;;;;;;6.90;3.70;;;;;;;5.68;49.56;100836.77;111096;1254;21978;-75
2024/03/18 10:21:26;;;;;;;55.80;40.60;;;;;;;5.65;49.51;100841.61;111144;1254;22684;-73
2024/03/18 10:23:59;;;;;;;12.30;6.10;;;;;;;5.64;49.39;100840.11;111042;1255;21960;-73
2024/03/18 10:26:31;;;;;;;9.30;4.70;;;;;;;5.62;49.46;100839.69;111390;1255;23569;-73
2024/03/18 10:29:01;;;;;;;8.80;3.50;;;;;;;5.61;49.50;100836.41;111336;1255;23692;-72
2024/03/18 10:31:37;;;;;;;7.60;3.50;;;;;;;5.59;49.49;100839.48;111335;1255;22542;-75
2024/03/18 10:34:06;;;;;;;6.80;3.90;;;;;;;5.60;49.72;100839.42;111466;1255;23552;-77
2024/03/18 10:36:38;;;;;;;6.80;3.60;;;;;;;5.71;49.30;100837.20;111450;1254;23001;-78
2024/03/18 10:39:38;;;;;;;6.00;3.40;;;;;;;5.78;49.11;100834.11;111589;1255;21949;-76
2024/03/18 10:42:13;;;;;;;8.40;3.90;;;;;;;5.84;49.25;100831.56;111505;1254;21983;-77
2024/03/18 10:44:57;;;;;;;7.40;3.60;;;;;;;6.00;49.19;100826.05;111429;1255;21964;-77
2024/03/18 10:47:28;;;;;;;4.00;2.60;;;;;;;6.17;48.75;100825.11;111357;1255;22604;-78
2024/03/18 10:49:58;;;;;;;7.50;3.00;;;;;;;6.25;48.48;100820.75;111394;1255;23672;-78
2024/03/18 10:52:28;;;;;;;6.70;2.90;;;;;;;6.31;47.90;100820.11;111576;1254;23307;-77
2024/03/18 10:54:59;;;;;;;7.20;2.90;;;;;;;6.37;47.84;100823.51;111454;1254;22153;-76
2024/03/18 10:57:30;;;;;;;5.60;2.90;;;;;;;6.38;47.32;100820.13;111507;1255;21960;-76
2024/03/18 10:59:59;;;;;;;13.10;3.90;;;;;;;6.35;47.08;100817.50;111460;1255;21956;-73
2024/03/18 11:02:29;;;;;;;6.10;3.00;;;;;;;6.30;46.77;100821.36;110894;1255;21999;-72
2024/03/18 11:04:58;;;;;;;5.40;3.10;;;;;;;6.25;46.58;100821.59;111103;1255;23685;-74
2024/03/18 11:07:30;;;;;;;3.30;2.20;;;;;;;6.19;46.60;100816.45;111069;1254;21953;-72
2024/03/18 11:10:11;;;;;;;12.50;3.00;;;;;;;6.14;46.57;100814.95;111055;1254;21930;-71
2024/03/18 11:12:41;;;;;;;6.10;2.70;;;;;;;6.06;46.49;100812.30;111228;1254;22667;-71
2024/03/18 11:15:11;;;;;;;6.90;2.70;;;;;;;6.06;46.77;100814.73;111006;1254;21963;-73
2024/03/18 11:17:45;;;;;;;5.10;2.70;;;;;;;6.06;46.82;100814.61;111177;1244;21974;-73
2024/03/18 11:20:20;;;;;;;4.00;2.20;;;;;;;6.00;46.57;100810.30;111365;1255;22207;-75
2024/03/18 11:22:56;;;;;;;19.40;13.20;;;;;;;5.96;46.56;100808.38;110888;1255;21956;-74
2024/03/18 11:25:28;;;;;;;10.00;3.60;;;;;;;5.85;47.13;100810.41;110994;1255;21974;-73
2024/03/18 11:27:59;;;;;;;7.60;3.90;;;;;;;5.73;47.28;100806.21;111060;1255;22745;-74
2024/03/18 11:30:36;;;;;;;10.00;3.20;;;;;;;5.66;47.10;100807.70;111127;1254;21955;-73
2024/03/18 11:33:11;;;;;;;4.30;2.90;;;;;;;5.54;46.94;100806.13;111078;1254;21974;-72
2024/03/18 11:35:42;;;;;;;17.20;3.60;;;;;;;5.42;46.99;100807.83;111327;1255;21957;-73
2024/03/18 11:38:16;;;;;;;5.80;2.70;;;;;;;5.36;47.33;100812.63;110985;1254;21990;-74
2024/03/18 11:40:45;;;;;;;6.10;2.90;;;;;;;5.34;47.68;100808.67;110959;1254;24130;-73
2024/03/18 11:43:15;;;;;;;6.00;2.70;;;;;;;5.35;48.04;100810.76;111025;1254;23720;-76